Glencoe, OK (74032)

9:45 AM CDT on September 19, 2014 (GMT -0500)
Stillwater, East Side | Change Station
CLOSE
Current Station
Personal Weather Station
Location: Stillwater, OK
Elevation: 935 ft
Nearby Weather Stations

Elev 935 ft 36.12 °N, 97.04 °W | Updated 6 seconds ago

Overcast
Overcast
70.8 °F
Feels Like 70.8 °F
N
3.0
Wind Variable Wind from ESE
Gusts 6.9 mph

Today
High -- | Low -- °F
--% Chance of Precip.
Yesterday
High -- | Low -- °F
Precip. -- in
7:13 AM 7:29 PM
Waning Crescent, 19% visible
Pressure 30.00 in
Visibility 1.5 miles
Clouds Overcast 200 ft
Dew Point 70 °F
Humidity 96%
Rainfall 0.00 in
Snow Depth Not available.
UV 1.2 out of 12
Pollen 9.70 out of 12
Air Quality Not available.
Flu Activity Not available.
SPECI KSWO 191433Z 15007KT 1 1/2SM BR OVC002 21/21 A3000 RMK AO2 T02110206

More Conditions Fewer Conditions

Pressure 30.00 in
Visibility 1.5 miles
Clouds Overcast 200 ft
Dew Point 70 °F
Humidity 96%
Rainfall 0.00 in
Snow Depth Not available.
UV 1.2 out of 12
Pollen 9.70 out of 12
Air Quality Not available.
Flu Activity Not available.
SPECI KSWO 191433Z 15007KT 1 1/2SM BR OVC002 21/21 A3000 RMK AO2 T02110206

More Conditions Fewer Conditions

10-Day Weather Forecast

Almanac

Astronomy

Sep. 19, 2014 Rise Set
Actual Time 7:13 AM CDT 7:29 PM CDT
Civil Twilight 6:47 AM CDT 7:54 PM CDT
Nautical Twilight 6:17 AM CDT 8:24 PM CDT
Astronomical Twilight 5:46 AM CDT 8:55 PM CDT
Moon 3:05 AM CDT 4:53 PM CDT
Length of Visible Light 13h 07m
Length of Day
12h 15m
Tomorrow will be 2m 17s shorter.
Waning Crescent, 19% of the Moon is Illuminated
Today
Waning Crescent
Sep 24
New
Oct 1
First Quarter
Oct 8
Full
Oct 15
Last Quarter

Today's Extremes

State Highs State Lows

Community

WunderPhotos

Upload Photos

1,754,630 photos uploaded!

WunderBlogs® & News

Nearby

Snow Depth

Station Depth Elevation
No new snow has been reported.

Earthquake Activity

City Distance Mag. Time & Date
No recent earthquake activity has been reported nearby.
Minimum magnitude displayed is 2.5.

Coastal Water Temperatures

Place Temperature
No Stations Reporting

Nearby Weather Stations